Terminal Aerodrome Forecast
Issued by NWS

Home | Current Version | Previous Version | Text Only | Print | Product List | Glossary On
Versions: 1 2 3 4 5 6 7 8 9 10 11 12 13 14 15 16
000
FTUS45 KSLC 260529
TAFOGD
TAF
KOGD 260529Z 2606/2706 15006KT P6SM BCFG SCT030 SCT120
     FM261200 16006KT P6SM SCT060 SCT120
     FM262100 27006KT P6SM SCT060 SCT120
     FM270000 16006KT P6SM SCT040 BKN080=

USA.gov is the U.S. government's official web portal to all federal, state and local government web resources and services.